Terminal Aerodrome Forecast
Issued by NWS

Home | Current Version | Previous Version | Text Only | Print | Product List | Glossary On
Versions: 1 2 3 4 5 6 7 8 9 10 11 12 13 14 15 16 17 18 19 20 21 22 23 24 25 26 27 28 29 30 31 32 33 34 35 36 37 38 39 40 41 42
000
FTUS46 KOTX 261131
TAFSFF
TAF
KSFF 261131Z 2612/2712 04003KT P6SM VCFG BKN250
     FM261900 10004KT P6SM OVC120
     FM262200 11005KT P6SM -RA BKN025 OVC050
     FM270000 11003KT 6SM -RA BR OVC035
     FM270300 VRB03KT P6SM -RA SCT020 OVC030
     FM270600 VRB03KT P6SM -RA OVC021=

USA.gov is the U.S. government's official web portal to all federal, state and local government web resources and services.